Time;durP1;ratioP1;P1;durP2;ratioP2;P2;SDS_P1;SDS_P2;PMS_P1;PMS_P2;Temp;Humidity;BMP_temperature;BMP_pressure;BME280_temperature;BME280_humidity;BME280_pressure;Samples;Min_cycle;Max_cycle;Signal;HPM_P1;HPM_P2
2022/11/23 00:00:36;;;;;;;4.30;2.78;;;;;;;;;;5073281;28;20023;-78
2022/11/23 00:03:02;;;;;;;4.28;2.80;;;;;;;;;;5087129;28;20316;-76
2022/11/23 00:05:29;;;;;;;5.07;2.70;;;;;;;;;;5088435;28;20020;-76
2022/11/23 00:07:55;;;;;;;6.97;3.25;;;;;;;;;;5087269;28;20040;-76
2022/11/23 00:10:22;;;;;;;3.00;2.60;;;;;;;;;;5069474;28;20020;-76
2022/11/23 00:12:48;;;;;;;3.83;2.53;;;;;;;;;;5088025;28;20107;-77
2022/11/23 00:15:14;;;;;;;4.93;2.30;;;;;;;;;;5074962;28;20027;-76
2022/11/23 00:17:40;;;;;;;3.55;2.53;;;;;;;;;;5092052;28;20114;-77
2022/11/23 00:20:07;;;;;;;3.40;2.50;;;;;;;;;;5088851;28;20032;-76
2022/11/23 00:22:33;;;;;;;3.88;2.10;;;;;;;;;;5087631;28;20023;-77
2022/11/23 00:24:59;;;;;;;4.38;2.55;;;;;;;;;;5086137;28;20099;-76
2022/11/23 00:27:25;;;;;;;3.35;2.28;;;;;;;;;;5087957;28;20031;-76
2022/11/23 00:29:52;;;;;;;3.95;2.08;;;;;;;;;;5088531;28;20039;-76
2022/11/23 00:32:18;;;;;;;4.38;2.10;;;;;;;;;;5091037;28;20042;-76
2022/11/23 00:34:44;;;;;;;2.95;2.30;;;;;;;;;;5095181;28;20028;-76
2022/11/23 00:37:10;;;;;;;4.55;2.90;;;;;;;;;;5092270;28;20481;-77
2022/11/23 00:39:36;;;;;;;3.47;2.42;;;;;;;;;;5090867;28;20110;-76
2022/11/23 00:42:02;;;;;;;6.55;2.10;;;;;;;;;;5088924;28;20048;-77
2022/11/23 00:44:28;;;;;;;3.35;2.10;;;;;;;;;;5073718;28;20017;-77
2022/11/23 00:46:54;;;;;;;2.20;2.00;;;;;;;;;;5083321;28;20490;-76
2022/11/23 00:49:21;;;;;;;3.10;2.20;;;;;;;;;;5077121;28;20034;-77
2022/11/23 00:51:47;;;;;;;3.47;2.60;;;;;;;;;;5092724;28;20016;-77
2022/11/23 00:54:13;;;;;;;6.05;2.80;;;;;;;;;;5056564;28;20089;-76
2022/11/23 00:56:39;;;;;;;4.97;2.72;;;;;;;;;;5088388;28;20073;-76
2022/11/23 00:59:05;;;;;;;4.72;2.00;;;;;;;;;;5088843;28;20385;-76
2022/11/23 01:01:32;;;;;;;2.55;2.00;;;;;;;;;;5070633;28;20445;-76
2022/11/23 01:04:00;;;;;;;4.78;2.30;;;;;;;;;;5092799;28;20044;-77
2022/11/23 01:06:33;;;;;;;5.03;2.40;;;;;;;;;;5088504;28;20024;-76
2022/11/23 01:09:01;;;;;;;6.40;2.30;;;;;;;;;;5087808;28;20047;-76
2022/11/23 01:11:28;;;;;;;4.03;1.98;;;;;;;;;;5089513;28;20055;-76
2022/11/23 01:13:54;;;;;;;4.30;1.95;;;;;;;;;;5085681;28;20024;-76
2022/11/23 01:16:28;;;;;;;3.38;1.90;;;;;;;;;;5087873;28;20474;-76
2022/11/23 01:18:55;;;;;;;7.15;2.33;;;;;;;;;;5088684;28;20270;-76
2022/11/23 01:21:21;;;;;;;5.97;2.10;;;;;;;;;;5085588;28;20012;-76
2022/11/23 01:23:47;;;;;;;4.60;1.98;;;;;;;;;;5088815;28;20394;-77
2022/11/23 01:26:13;;;;;;;4.35;2.40;;;;;;;;;;5089752;28;20025;-76
2022/11/23 01:28:39;;;;;;;4.00;1.98;;;;;;;;;;5085294;28;20020;-76
2022/11/23 01:31:06;;;;;;;6.50;2.20;;;;;;;;;;5091595;28;20397;-76
2022/11/23 01:33:33;;;;;;;8.23;2.45;;;;;;;;;;5082260;28;20060;-77
2022/11/23 01:35:59;;;;;;;5.05;2.25;;;;;;;;;;5079775;28;20058;-76
2022/11/23 01:38:25;;;;;;;12.70;2.50;;;;;;;;;;5092550;28;20047;-76
2022/11/23 01:40:51;;;;;;;7.00;2.15;;;;;;;;;;5091202;28;20251;-76
2022/11/23 01:43:18;;;;;;;13.65;2.30;;;;;;;;;;5092894;28;20021;-76
2022/11/23 01:45:55;;;;;;;5.28;2.97;;;;;;;;;;5086888;28;20019;-76
2022/11/23 01:48:41;;;;;;;4.25;1.80;;;;;;;;;;5088884;28;20026;-76
2022/11/23 01:51:10;;;;;;;4.07;1.95;;;;;;;;;;5086459;28;20040;-77
2022/11/23 01:53:36;;;;;;;4.95;1.80;;;;;;;;;;5087000;28;20024;-76
2022/11/23 01:56:04;;;;;;;2.15;1.77;;;;;;;;;;5084122;28;20133;-77
2022/11/23 01:58:31;;;;;;;3.50;1.60;;;;;;;;;;5086342;28;20030;-77
2022/11/23 02:00:58;;;;;;;2.58;2.00;;;;;;;;;;5062008;28;20567;-77
2022/11/23 02:03:24;;;;;;;5.28;1.90;;;;;;;;;;5085528;28;20056;-76
2022/11/23 02:05:52;;;;;;;4.88;1.67;;;;;;;;;;5086489;28;20072;-77
2022/11/23 02:08:19;;;;;;;1.35;1.30;;;;;;;;;;5064410;28;20024;-77
2022/11/23 02:10:46;;;;;;;2.85;1.90;;;;;;;;;;5080610;28;20020;-77
2022/11/23 02:13:12;;;;;;;1.92;1.40;;;;;;;;;;5085607;28;20055;-77
2022/11/23 02:15:39;;;;;;;2.97;1.70;;;;;;;;;;5086458;28;20023;-76
2022/11/23 02:18:08;;;;;;;1.88;1.33;;;;;;;;;;5088467;28;20031;-76
2022/11/23 02:20:38;;;;;;;1.67;1.50;;;;;;;;;;5072424;28;20016;-78
2022/11/23 02:23:04;;;;;;;1.83;1.40;;;;;;;;;;5087186;28;20112;-77
2022/11/23 02:25:41;;;;;;;1.83;1.20;;;;;;;;;;5090041;28;20046;-77
2022/11/23 02:28:08;;;;;;;1.30;1.30;;;;;;;;;;5082913;28;20059;-76
2022/11/23 02:30:34;;;;;;;1.42;1.30;;;;;;;;;;5087171;28;20016;-77
2022/11/23 02:33:03;;;;;;;1.23;1.23;;;;;;;;;;5095614;28;20028;-77
2022/11/23 02:35:29;;;;;;;1.10;1.10;;;;;;;;;;5100843;28;20050;-77
2022/11/23 02:37:55;;;;;;;1.63;1.60;;;;;;;;;;5070728;28;20044;-76
2022/11/23 02:40:34;;;;;;;1.13;1.13;;;;;;;;;;5094135;28;20031;-76
2022/11/23 02:43:01;;;;;;;0.93;0.93;;;;;;;;;;5071281;28;20023;-77
2022/11/23 02:45:27;;;;;;;0.98;0.98;;;;;;;;;;5086527;28;20044;-76
2022/11/23 02:47:53;;;;;;;1.00;1.00;;;;;;;;;;5084731;28;20036;-76
2022/11/23 02:50:20;;;;;;;1.10;1.10;;;;;;;;;;5086115;28;20035;-76
2022/11/23 02:52:46;;;;;;;0.90;0.90;;;;;;;;;;5075333;28;20116;-76
2022/11/23 02:55:12;;;;;;;0.90;0.90;;;;;;;;;;5088307;28;20024;-76
2022/11/23 02:57:38;;;;;;;1.05;1.00;;;;;;;;;;5090345;28;20038;-76
2022/11/23 03:00:05;;;;;;;1.98;1.30;;;;;;;;;;5071237;28;20032;-76
2022/11/23 03:02:31;;;;;;;1.00;1.00;;;;;;;;;;5071567;28;20363;-77
2022/11/23 03:04:57;;;;;;;0.90;0.90;;;;;;;;;;5092914;28;20020;-76
2022/11/23 03:07:23;;;;;;;1.00;1.00;;;;;;;;;;5088076;28;20032;-77
2022/11/23 03:09:49;;;;;;;1.00;1.00;;;;;;;;;;5100861;28;20068;-76
2022/11/23 03:12:15;;;;;;;1.60;1.50;;;;;;;;;;5090674;28;20035;-77
2022/11/23 03:14:41;;;;;;;2.92;1.42;;;;;;;;;;5104375;28;20547;-76
2022/11/23 03:17:08;;;;;;;1.63;1.40;;;;;;;;;;5095326;28;20058;-75
2022/11/23 03:19:34;;;;;;;1.55;1.45;;;;;;;;;;5096001;28;20020;-77
2022/11/23 03:22:00;;;;;;;2.28;1.50;;;;;;;;;;5097290;28;20494;-76
2022/11/23 03:24:26;;;;;;;2.45;1.50;;;;;;;;;;5090127;28;20020;-77
2022/11/23 03:26:52;;;;;;;1.88;1.60;;;;;;;;;;5089675;28;20160;-76
2022/11/23 03:29:18;;;;;;;2.05;1.50;;;;;;;;;;5070954;28;20030;-76
2022/11/23 03:31:44;;;;;;;1.80;1.52;;;;;;;;;;5094407;28;20098;-76
2022/11/23 03:34:10;;;;;;;1.95;1.58;;;;;;;;;;5076504;28;20028;-76
2022/11/23 03:36:36;;;;;;;3.60;1.70;;;;;;;;;;5100000;28;20716;-77
2022/11/23 03:39:02;;;;;;;2.45;1.30;;;;;;;;;;5085437;28;20028;-76
2022/11/23 03:41:28;;;;;;;1.25;1.10;;;;;;;;;;5089105;28;20026;-76
2022/11/23 03:43:54;;;;;;;1.60;1.20;;;;;;;;;;5091146;28;20024;-77
2022/11/23 03:46:20;;;;;;;1.00;1.00;;;;;;;;;;5089000;28;20057;-77
2022/11/23 03:48:46;;;;;;;0.95;0.90;;;;;;;;;;5091118;28;20028;-77
2022/11/23 03:51:12;;;;;;;1.27;1.17;;;;;;;;;;5090302;28;20071;-77
2022/11/23 03:53:38;;;;;;;1.02;0.90;;;;;;;;;;5082763;28;20032;-77
2022/11/23 03:56:04;;;;;;;1.00;1.00;;;;;;;;;;5089587;28;20390;-77
2022/11/23 03:58:31;;;;;;;1.98;1.52;;;;;;;;;;5073618;28;20024;-77
2022/11/23 04:00:57;;;;;;;1.80;1.50;;;;;;;;;;5091836;28;20024;-77
2022/11/23 04:03:23;;;;;;;1.65;1.40;;;;;;;;;;5090850;28;20028;-77
2022/11/23 04:05:49;;;;;;;1.45;1.17;;;;;;;;;;5088010;28;20051;-76
2022/11/23 04:08:15;;;;;;;1.40;1.30;;;;;;;;;;5088070;28;20035;-77
2022/11/23 04:10:41;;;;;;;5.63;1.63;;;;;;;;;;5083894;28;20447;-78
2022/11/23 04:13:07;;;;;;;3.42;1.65;;;;;;;;;;5079002;28;20039;-77
2022/11/23 04:15:33;;;;;;;3.10;1.30;;;;;;;;;;5090893;28;20087;-77
2022/11/23 04:17:59;;;;;;;1.10;1.10;;;;;;;;;;5084365;28;20023;-77
2022/11/23 04:20:26;;;;;;;0.90;0.90;;;;;;;;;;5075544;28;20038;-76
2022/11/23 04:22:52;;;;;;;0.98;0.98;;;;;;;;;;5089481;28;20016;-77
2022/11/23 04:25:18;;;;;;;1.00;1.00;;;;;;;;;;5089410;28;20039;-76
2022/11/23 04:27:45;;;;;;;1.00;1.00;;;;;;;;;;5089465;28;20500;-76
2022/11/23 04:30:11;;;;;;;1.00;1.00;;;;;;;;;;5068360;28;20108;-77
2022/11/23 04:32:37;;;;;;;1.00;1.00;;;;;;;;;;5089558;28;20036;-76
2022/11/23 04:35:04;;;;;;;1.98;0.90;;;;;;;;;;5081605;28;20032;-77
2022/11/23 04:37:30;;;;;;;1.00;1.00;;;;;;;;;;5069788;28;20402;-76
2022/11/23 04:39:56;;;;;;;1.00;1.00;;;;;;;;;;5069250;28;20095;-77
2022/11/23 04:42:22;;;;;;;1.23;1.10;;;;;;;;;;5071115;28;20071;-77
2022/11/23 04:44:48;;;;;;;1.90;1.13;;;;;;;;;;5089769;28;20107;-77
2022/11/23 04:47:14;;;;;;;2.85;1.30;;;;;;;;;;5091626;28;20024;-77
2022/11/23 04:49:40;;;;;;;1.77;1.45;;;;;;;;;;5089084;28;20030;-76
2022/11/23 04:52:06;;;;;;;1.75;1.48;;;;;;;;;;5084541;28;20082;-76
2022/11/23 04:54:32;;;;;;;2.10;1.50;;;;;;;;;;5087940;28;20107;-76
2022/11/23 04:56:58;;;;;;;1.83;1.40;;;;;;;;;;5086238;28;20023;-76
2022/11/23 04:59:25;;;;;;;1.45;1.35;;;;;;;;;;5089913;28;20020;-76
2022/11/23 05:01:51;;;;;;;2.05;1.42;;;;;;;;;;5089133;28;20068;-77
2022/11/23 05:04:18;;;;;;;3.33;1.70;;;;;;;;;;5073104;28;21322;-75
2022/11/23 05:06:44;;;;;;;1.40;1.27;;;;;;;;;;5094086;28;20020;-75
2022/11/23 05:09:10;;;;;;;2.58;2.03;;;;;;;;;;5091336;28;20039;-77
2022/11/23 05:11:36;;;;;;;2.20;1.63;;;;;;;;;;5089340;28;20039;-77
2022/11/23 05:14:02;;;;;;;3.00;1.70;;;;;;;;;;5086881;28;20020;-76
2022/11/23 05:16:28;;;;;;;5.57;1.70;;;;;;;;;;5090432;28;20027;-75
2022/11/23 05:18:54;;;;;;;3.92;1.48;;;;;;;;;;5088836;28;20080;-78
2022/11/23 05:21:21;;;;;;;3.20;1.73;;;;;;;;;;5085559;28;20031;-77
2022/11/23 05:23:47;;;;;;;5.35;1.80;;;;;;;;;;5090875;28;20093;-76
2022/11/23 05:26:13;;;;;;;3.75;1.70;;;;;;;;;;5089423;28;20020;-76
2022/11/23 05:28:39;;;;;;;3.10;1.50;;;;;;;;;;5087475;28;20062;-76
2022/11/23 05:31:05;;;;;;;3.53;1.98;;;;;;;;;;5087146;28;20032;-76
2022/11/23 05:33:31;;;;;;;6.40;1.67;;;;;;;;;;5090440;28;20316;-76
2022/11/23 05:35:57;;;;;;;6.88;1.90;;;;;;;;;;5089367;28;20081;-76
2022/11/23 05:38:23;;;;;;;7.57;2.30;;;;;;;;;;5087900;28;20044;-76
2022/11/23 05:40:49;;;;;;;3.70;1.55;;;;;;;;;;5089971;28;20032;-76
2022/11/23 05:43:15;;;;;;;3.33;2.50;;;;;;;;;;5086659;28;20070;-76
2022/11/23 05:45:41;;;;;;;3.15;1.63;;;;;;;;;;5088290;28;20027;-76
2022/11/23 05:48:07;;;;;;;5.18;2.45;;;;;;;;;;5068967;28;20043;-76
2022/11/23 05:50:33;;;;;;;5.32;1.90;;;;;;;;;;5084040;28;20032;-77
2022/11/23 05:53:00;;;;;;;6.03;1.77;;;;;;;;;;5090571;28;20094;-76
2022/11/23 05:55:26;;;;;;;3.78;1.63;;;;;;;;;;5102745;28;20103;-76
2022/11/23 05:57:52;;;;;;;9.40;2.00;;;;;;;;;;5096143;28;20038;-76
2022/11/23 06:00:19;;;;;;;4.68;1.70;;;;;;;;;;5103018;28;20031;-77
2022/11/23 06:02:45;;;;;;;3.70;1.92;;;;;;;;;;5092225;28;20714;-76
2022/11/23 06:05:11;;;;;;;7.05;1.95;;;;;;;;;;5094915;28;20028;-76
2022/11/23 06:07:38;;;;;;;7.93;1.95;;;;;;;;;;5088247;28;20126;-76
2022/11/23 06:16:33;;;;;;;;;;;;;;;;;;5071023;27;20128;-79
2022/11/23 06:19:00;;;;;;;2.53;1.70;;;;;;;;;;5078363;28;20465;-77
2022/11/23 06:21:26;;;;;;;4.53;2.78;;;;;;;;;;5069701;28;20098;-77
2022/11/23 06:23:52;;;;;;;4.50;1.83;;;;;;;;;;5070141;28;20649;-77
2022/11/23 06:26:18;;;;;;;3.03;1.75;;;;;;;;;;5070489;28;20055;-77
2022/11/23 06:28:44;;;;;;;6.15;2.08;;;;;;;;;;5086036;28;20032;-76
2022/11/23 06:31:10;;;;;;;4.28;2.08;;;;;;;;;;5087447;28;20036;-78
2022/11/23 06:33:37;;;;;;;3.30;2.17;;;;;;;;;;5084595;28;20020;-78
2022/11/23 06:36:04;;;;;;;9.00;2.17;;;;;;;;;;5088649;28;20028;-76
2022/11/23 06:38:30;;;;;;;6.20;1.90;;;;;;;;;;5083432;28;20032;-77
2022/11/23 06:41:00;;;;;;;3.25;1.55;;;;;;;;;;5085938;28;20290;-77
2022/11/23 06:43:26;;;;;;;4.32;1.83;;;;;;;;;;5082893;28;20050;-77
2022/11/23 06:45:53;;;;;;;6.20;1.85;;;;;;;;;;5084175;28;20031;-78
2022/11/23 06:48:20;;;;;;;4.45;1.85;;;;;;;;;;5062742;28;20075;-77
2022/11/23 06:50:46;;;;;;;6.50;2.00;;;;;;;;;;5097086;28;20043;-78
2022/11/23 06:53:12;;;;;;;5.15;2.33;;;;;;;;;;5081513;28;20093;-78
2022/11/23 06:55:38;;;;;;;6.97;2.10;;;;;;;;;;5074753;28;20031;-78
2022/11/23 06:58:05;;;;;;;6.10;2.10;;;;;;;;;;5081003;28;20040;-78
2022/11/23 07:00:31;;;;;;;8.35;2.60;;;;;;;;;;5087267;28;20484;-79
2022/11/23 07:02:59;;;;;;;10.27;2.47;;;;;;;;;;5083700;28;20029;-77
2022/11/23 07:05:25;;;;;;;6.32;2.35;;;;;;;;;;5089281;28;20024;-78
2022/11/23 07:07:51;;;;;;;5.93;2.03;;;;;;;;;;5086704;28;20040;-78
2022/11/23 07:10:17;;;;;;;11.10;2.55;;;;;;;;;;5091795;28;20087;-77
2022/11/23 07:12:43;;;;;;;12.30;2.60;;;;;;;;;;5088256;28;20024;-78
2022/11/23 07:15:10;;;;;;;5.22;3.25;;;;;;;;;;5065660;28;20401;-78
2022/11/23 07:17:43;;;;;;;4.85;2.83;;;;;;;;;;5078720;28;20032;-79
2022/11/23 07:20:10;;;;;;;7.20;2.47;;;;;;;;;;5086222;28;20016;-77
2022/11/23 07:22:36;;;;;;;6.57;2.40;;;;;;;;;;5085909;28;20107;-77
2022/11/23 07:25:02;;;;;;;5.38;2.35;;;;;;;;;;5070382;28;20032;-77
2022/11/23 07:27:28;;;;;;;12.50;2.55;;;;;;;;;;5067288;28;20456;-77
2022/11/23 07:29:54;;;;;;;9.23;2.60;;;;;;;;;;5072760;28;20044;-76
2022/11/23 07:32:20;;;;;;;7.70;3.15;;;;;;;;;;5069207;28;20059;-79
2022/11/23 07:34:47;;;;;;;8.32;4.40;;;;;;;;;;5071961;28;20032;-78
2022/11/23 07:37:13;;;;;;;6.43;2.50;;;;;;;;;;5073259;28;20040;-79
2022/11/23 07:39:39;;;;;;;7.18;2.33;;;;;;;;;;5065050;28;20151;-79
2022/11/23 07:42:05;;;;;;;7.57;2.80;;;;;;;;;;5072898;28;20036;-76
2022/11/23 07:44:31;;;;;;;10.20;2.50;;;;;;;;;;5065409;28;20040;-79
2022/11/23 07:46:57;;;;;;;4.07;2.00;;;;;;;;;;5069041;28;20036;-78
2022/11/23 07:49:23;;;;;;;6.93;2.13;;;;;;;;;;5081203;28;20036;-78
2022/11/23 07:51:49;;;;;;;12.50;3.17;;;;;;;;;;5062598;28;20070;-77
2022/11/23 07:54:16;;;;;;;7.70;2.53;;;;;;;;;;5081538;28;20115;-78
2022/11/23 07:56:42;;;;;;;10.73;2.40;;;;;;;;;;5056956;28;20098;-79
2022/11/23 07:59:08;;;;;;;6.05;2.47;;;;;;;;;;5061386;28;20017;-77
2022/11/23 08:01:34;;;;;;;10.52;2.58;;;;;;;;;;5069375;28;20462;-76
2022/11/23 08:04:01;;;;;;;6.47;2.30;;;;;;;;;;5051831;28;21533;-77
2022/11/23 08:06:27;;;;;;;10.18;2.60;;;;;;;;;;5067506;28;20097;-78
2022/11/23 08:08:54;;;;;;;11.05;2.53;;;;;;;;;;5066542;28;20504;-78
2022/11/23 08:11:21;;;;;;;6.55;2.30;;;;;;;;;;5064403;28;20057;-77
2022/11/23 08:13:47;;;;;;;10.57;2.53;;;;;;;;;;5064036;28;20024;-78
2022/11/23 08:16:13;;;;;;;9.93;2.83;;;;;;;;;;5070816;28;20055;-78
2022/11/23 08:18:39;;;;;;;7.75;2.33;;;;;;;;;;5075118;28;20035;-75
2022/11/23 08:21:05;;;;;;;13.95;2.60;;;;;;;;;;5075296;28;20039;-78
2022/11/23 08:23:31;;;;;;;9.23;2.60;;;;;;;;;;5062400;28;20020;-78
2022/11/23 08:25:57;;;;;;;11.20;2.95;;;;;;;;;;5070221;28;20029;-79
2022/11/23 08:28:23;;;;;;;11.35;2.83;;;;;;;;;;5074456;28;20055;-77
2022/11/23 08:30:49;;;;;;;7.00;2.70;;;;;;;;;;5061897;28;20025;-79
2022/11/23 08:33:16;;;;;;;11.95;3.10;;;;;;;;;;5075358;28;20417;-78
2022/11/23 08:35:42;;;;;;;8.65;2.40;;;;;;;;;;5074177;28;20107;-78
2022/11/23 08:38:10;;;;;;;8.57;3.95;;;;;;;;;;5067608;28;20059;-77
2022/11/23 08:40:36;;;;;;;12.70;3.35;;;;;;;;;;5072766;28;20031;-78
2022/11/23 08:43:03;;;;;;;8.00;3.25;;;;;;;;;;5070989;28;20497;-80
2022/11/23 08:45:29;;;;;;;10.52;3.10;;;;;;;;;;5080710;28;20025;-77
2022/11/23 08:48:01;;;;;;;5.47;2.53;;;;;;;;;;5074222;28;20035;-79
2022/11/23 08:50:28;;;;;;;8.82;2.92;;;;;;;;;;5061623;28;20035;-77
2022/11/23 08:52:55;;;;;;;7.38;2.53;;;;;;;;;;5067285;28;20028;-77
2022/11/23 08:55:21;;;;;;;11.98;3.60;;;;;;;;;;5072273;28;20044;-78
2022/11/23 08:57:47;;;;;;;10.43;4.15;;;;;;;;;;5074205;28;20016;-76
2022/11/23 09:00:14;;;;;;;11.02;2.72;;;;;;;;;;5071101;28;20017;-78
2022/11/23 09:02:40;;;;;;;11.75;3.83;;;;;;;;;;5068727;28;20025;-78
2022/11/23 09:05:06;;;;;;;6.53;3.03;;;;;;;;;;5071020;28;20053;-77
2022/11/23 09:07:32;;;;;;;13.07;3.30;;;;;;;;;;5070669;28;20090;-78
2022/11/23 09:09:58;;;;;;;9.27;3.13;;;;;;;;;;5050849;28;20037;-77
2022/11/23 09:12:24;;;;;;;8.00;2.55;;;;;;;;;;5067402;28;20047;-78
2022/11/23 09:14:52;;;;;;;9.30;2.85;;;;;;;;;;5071121;28;20045;-77
2022/11/23 09:17:18;;;;;;;11.15;3.50;;;;;;;;;;5070207;28;20021;-77
2022/11/23 09:19:44;;;;;;;16.75;4.03;;;;;;;;;;5074024;28;20025;-78
2022/11/23 09:22:10;;;;;;;11.77;2.63;;;;;;;;;;5078783;28;20025;-77
2022/11/23 09:24:36;;;;;;;8.98;2.50;;;;;;;;;;5071030;28;20037;-77
2022/11/23 09:27:02;;;;;;;4.97;2.35;;;;;;;;;;5064589;28;20028;-78
2022/11/23 09:29:28;;;;;;;7.55;2.90;;;;;;;;;;5069945;28;20036;-78
2022/11/23 09:31:54;;;;;;;9.52;2.42;;;;;;;;;;5071794;28;20035;-78
2022/11/23 09:34:21;;;;;;;9.02;3.30;;;;;;;;;;5065454;28;20024;-78
2022/11/23 09:36:47;;;;;;;5.25;3.13;;;;;;;;;;5072826;28;20027;-77
2022/11/23 09:39:14;;;;;;;5.13;2.80;;;;;;;;;;5070627;28;20494;-78
2022/11/23 09:41:42;;;;;;;6.25;2.90;;;;;;;;;;5070929;28;20105;-78
2022/11/23 09:44:17;;;;;;;6.65;2.25;;;;;;;;;;5067917;28;20117;-78
2022/11/23 09:47:16;;;;;;;15.68;3.08;;;;;;;;;;5070671;28;20024;-78
2022/11/23 09:49:54;;;;;;;8.27;2.95;;;;;;;;;;5033124;28;20041;-77
2022/11/23 09:52:21;;;;;;;6.25;2.85;;;;;;;;;;5066236;28;20033;-78
2022/11/23 09:54:49;;;;;;;8.65;2.35;;;;;;;;;;5068320;28;20033;-77
2022/11/23 09:57:18;;;;;;;10.50;3.33;;;;;;;;;;5070009;28;20024;-78
2022/11/23 09:59:48;;;;;;;8.52;2.72;;;;;;;;;;5070354;28;20029;-77
2022/11/23 10:02:27;;;;;;;8.05;3.13;;;;;;;;;;5065704;28;20553;-78
2022/11/23 10:04:54;;;;;;;6.75;2.28;;;;;;;;;;5079160;28;20392;-77
2022/11/23 10:07:25;;;;;;;6.03;2.30;;;;;;;;;;5062489;28;20045;-78
2022/11/23 10:09:54;;;;;;;9.38;2.72;;;;;;;;;;5071302;28;20032;-79
2022/11/23 10:12:56;;;;;;;7.18;2.80;;;;;;;;;;5069079;28;20029;-77
2022/11/23 10:15:25;;;;;;;8.13;2.35;;;;;;;;;;5009837;28;20058;-76
2022/11/23 10:18:05;;;;;;;4.38;2.75;;;;;;;;;;5045263;28;20924;-76
2022/11/23 10:20:37;;;;;;;6.65;2.50;;;;;;;;;;5066151;28;20035;-76
2022/11/23 10:23:08;;;;;;;6.30;3.63;;;;;;;;;;5070735;28;20106;-77
2022/11/23 10:25:37;;;;;;;5.25;2.15;;;;;;;;;;5069135;28;20367;-78
2022/11/23 10:28:11;;;;;;;11.43;2.50;;;;;;;;;;5065492;28;20029;-76
2022/11/23 10:30:40;;;;;;;11.65;3.72;;;;;;;;;;5067164;28;20466;-76
2022/11/23 10:33:06;;;;;;;4.88;2.08;;;;;;;;;;5066960;28;20385;-76
2022/11/23 10:35:34;;;;;;;4.85;2.58;;;;;;;;;;5067740;28;20058;-75
2022/11/23 10:38:13;;;;;;;5.55;2.10;;;;;;;;;;5071256;28;20035;-76
2022/11/23 10:40:42;;;;;;;4.65;1.92;;;;;;;;;;5055535;28;20025;-78
2022/11/23 10:43:15;;;;;;;8.13;3.22;;;;;;;;;;5066592;28;20017;-78
2022/11/23 10:45:42;;;;;;;8.40;2.83;;;;;;;;;;5056392;28;20028;-79
2022/11/23 10:48:08;;;;;;;3.83;2.00;;;;;;;;;;5068279;28;20037;-78
2022/11/23 10:50:43;;;;;;;8.20;2.13;;;;;;;;;;5072346;28;20035;-79
2022/11/23 10:53:09;;;;;;;4.28;2.63;;;;;;;;;;5063884;28;20053;-78
2022/11/23 10:55:53;;;;;;;9.57;2.80;;;;;;;;;;5067093;28;20071;-78
2022/11/23 10:58:25;;;;;;;7.00;3.33;;;;;;;;;;5067603;28;20470;-78
2022/11/23 11:01:05;;;;;;;4.93;2.28;;;;;;;;;;5070751;28;20032;-78
2022/11/23 11:03:33;;;;;;;8.32;2.25;;;;;;;;;;5070246;28;20087;-76
2022/11/23 11:05:59;;;;;;;2.47;1.67;;;;;;;;;;5054176;28;20025;-78
2022/11/23 11:08:33;;;;;;;3.85;2.33;;;;;;;;;;5070507;28;20377;-78
2022/11/23 11:11:07;;;;;;;5.65;2.03;;;;;;;;;;5068332;28;20966;-77
2022/11/23 11:13:35;;;;;;;3.17;2.13;;;;;;;;;;5068663;28;20055;-76
2022/11/23 11:16:03;;;;;;;3.83;2.00;;;;;;;;;;5075320;28;20115;-76
2022/11/23 11:18:33;;;;;;;11.48;2.50;;;;;;;;;;5073578;28;20031;-78
2022/11/23 11:21:01;;;;;;;5.20;2.20;;;;;;;;;;5066466;28;20565;-77
2022/11/23 11:23:28;;;;;;;7.30;2.38;;;;;;;;;;5075600;28;20032;-78
2022/11/23 11:26:14;;;;;;;4.80;2.33;;;;;;;;;;5072996;28;20028;-78
2022/11/23 11:28:42;;;;;;;5.95;2.30;;;;;;;;;;5065982;28;20020;-77
2022/11/23 11:31:27;;;;;;;4.47;3.42;;;;;;;;;;5067991;28;20025;-77
2022/11/23 11:33:58;;;;;;;6.73;2.13;;;;;;;;;;5081455;28;20074;-77
2022/11/23 11:36:26;;;;;;;4.72;1.98;;;;;;;;;;5070282;28;20040;-77
2022/11/23 11:38:54;;;;;;;5.55;2.70;;;;;;;;;;5068334;28;20031;-78
2022/11/23 11:41:24;;;;;;;3.10;2.00;;;;;;;;;;5069912;28;20554;-79
2022/11/23 11:43:57;;;;;;;7.65;2.13;;;;;;;;;;5066817;28;20032;-77
2022/11/23 11:46:30;;;;;;;8.38;3.38;;;;;;;;;;5060643;28;20071;-77
2022/11/23 11:49:08;;;;;;;2.40;1.80;;;;;;;;;;5071511;28;20437;-78
2022/11/23 11:51:40;;;;;;;4.15;2.60;;;;;;;;;;5073181;28;20024;-77
2022/11/23 11:54:12;;;;;;;4.97;2.75;;;;;;;;;;5073542;28;20021;-78
2022/11/23 11:56:38;;;;;;;4.30;2.85;;;;;;;;;;5078039;28;20029;-78
2022/11/23 11:59:18;;;;;;;5.85;2.33;;;;;;;;;;5078471;28;20065;-77
2022/11/23 12:01:51;;;;;;;5.53;2.42;;;;;;;;;;5079350;28;20031;-78
2022/11/23 12:04:37;;;;;;;3.95;2.20;;;;;;;;;;5078308;28;20090;-77
2022/11/23 12:07:08;;;;;;;4.13;2.10;;;;;;;;;;5077250;28;20030;-78
2022/11/23 12:09:38;;;;;;;2.83;2.03;;;;;;;;;;5080406;28;20116;-77
2022/11/23 12:12:05;;;;;;;8.90;2.53;;;;;;;;;;5070374;28;20529;-78
2022/11/23 12:14:31;;;;;;;5.13;1.92;;;;;;;;;;5067331;28;20071;-78
2022/11/23 12:17:18;;;;;;;3.65;2.10;;;;;;;;;;5070143;28;20028;-76
2022/11/23 12:20:10;;;;;;;6.35;2.53;;;;;;;;;;5071085;28;20408;-76
2022/11/23 12:22:49;;;;;;;4.32;2.00;;;;;;;;;;5047121;28;20060;-76
2022/11/23 12:25:32;;;;;;;4.10;2.00;;;;;;;;;;5063616;28;20035;-77
2022/11/23 12:28:01;;;;;;;4.90;1.90;;;;;;;;;;5072188;28;20114;-77
2022/11/23 12:30:39;;;;;;;6.28;1.83;;;;;;;;;;5067990;28;20028;-77
2022/11/23 12:33:08;;;;;;;8.23;3.67;;;;;;;;;;5069356;28;21029;-76
2022/11/23 12:35:37;;;;;;;2.83;1.83;;;;;;;;;;5070320;28;20032;-76
2022/11/23 12:38:18;;;;;;;5.60;2.28;;;;;;;;;;5068360;28;20036;-77
2022/11/23 12:40:48;;;;;;;8.13;2.50;;;;;;;;;;5069432;28;20163;-76
2022/11/23 12:43:34;;;;;;;5.88;2.47;;;;;;;;;;5067765;28;20020;-77
2022/11/23 12:46:22;;;;;;;7.05;2.20;;;;;;;;;;5047040;28;20841;-76
2022/11/23 12:48:48;;;;;;;6.78;2.40;;;;;;;;;;5067452;28;20032;-77
2022/11/23 12:51:21;;;;;;;6.25;2.95;;;;;;;;;;5067252;28;20028;-77
2022/11/23 12:53:50;;;;;;;6.45;2.28;;;;;;;;;;5069863;28;20044;-76
2022/11/23 12:56:36;;;;;;;5.78;2.25;;;;;;;;;;5047177;28;20055;-76
2022/11/23 12:59:03;;;;;;;6.90;2.45;;;;;;;;;;5046752;28;20134;-78
2022/11/23 13:01:33;;;;;;;5.63;2.03;;;;;;;;;;5067227;28;20533;-76
2022/11/23 13:04:08;;;;;;;4.03;2.13;;;;;;;;;;5067518;28;20049;-76
2022/11/23 13:06:34;;;;;;;4.47;2.10;;;;;;;;;;5072376;28;20073;-76
2022/11/23 13:09:03;;;;;;;6.50;2.17;;;;;;;;;;5049760;28;20029;-76
2022/11/23 13:11:37;;;;;;;3.88;2.13;;;;;;;;;;5066129;28;20021;-78
2022/11/23 13:14:21;;;;;;;4.95;2.28;;;;;;;;;;5072118;28;20033;-78
2022/11/23 13:16:53;;;;;;;8.13;2.30;;;;;;;;;;5025031;28;20107;-78
2022/11/23 13:19:21;;;;;;;6.70;2.67;;;;;;;;;;5021860;28;20033;-77
2022/11/23 13:21:47;;;;;;;7.28;4.13;;;;;;;;;;5044891;28;20035;-78
2022/11/23 13:24:33;;;;;;;13.23;4.28;;;;;;;;;;5032211;28;20104;-78
2022/11/23 13:26:59;;;;;;;;;;;;;;;;;;5031282;28;20430;-79
2022/11/23 13:29:44;;;;;;;9.60;5.90;;;;;;;;;;5030737;28;19951;-79
2022/11/23 13:32:29;;;;;;;6.25;3.58;;;;;;;;;;5030249;28;20049;-78
2022/11/23 13:34:55;;;;;;;9.63;3.92;;;;;;;;;;5030719;28;20124;-78
2022/11/23 13:37:23;;;;;;;7.55;3.33;;;;;;;;;;5048783;28;20029;-78
2022/11/23 13:39:56;;;;;;;5.10;3.13;;;;;;;;;;5030704;28;20018;-77
2022/11/23 13:42:23;;;;;;;8.07;3.95;;;;;;;;;;5041284;28;20038;-78
2022/11/23 13:45:09;;;;;;;13.23;6.22;;;;;;;;;;5029804;28;20025;-76
2022/11/23 13:47:35;;;;;;;7.75;3.65;;;;;;;;;;5032036;28;20597;-78
2022/11/23 13:50:09;;;;;;;12.70;4.65;;;;;;;;;;5035617;28;20032;-76
2022/11/23 13:52:35;;;;;;;12.52;3.15;;;;;;;;;;5030227;28;20033;-78
2022/11/23 13:55:04;;;;;;;8.93;3.78;;;;;;;;;;5026837;28;20033;-79
2022/11/23 13:57:31;;;;;;;6.55;3.25;;;;;;;;;;5029910;28;20417;-79
2022/11/23 14:00:15;;;;;;;5.88;2.75;;;;;;;;;;5029836;28;20029;-78
2022/11/23 14:02:41;;;;;;;3.45;2.45;;;;;;;;;;5029627;28;20026;-78
2022/11/23 14:05:29;;;;;;;5.53;2.70;;;;;;;;;;5027314;28;20439;-77
2022/11/23 14:07:56;;;;;;;5.10;2.78;;;;;;;;;;5026032;28;20030;-77
2022/11/23 14:10:23;;;;;;;5.22;2.42;;;;;;;;;;5035199;28;20026;-77
2022/11/23 14:12:58;;;;;;;4.05;1.98;;;;;;;;;;5031333;28;20040;-77
2022/11/23 14:15:26;;;;;;;5.70;2.25;;;;;;;;;;5057966;28;20616;-76
2022/11/23 14:17:55;;;;;;;5.47;2.47;;;;;;;;;;5073681;28;20033;-78
2022/11/23 14:20:24;;;;;;;3.97;2.72;;;;;;;;;;5076800;28;20021;-79
2022/11/23 14:22:50;;;;;;;3.65;2.17;;;;;;;;;;5071143;28;20032;-78
2022/11/23 14:25:16;;;;;;;6.57;3.17;;;;;;;;;;5071195;28;20021;-77
2022/11/23 14:27:55;;;;;;;7.80;3.92;;;;;;;;;;5073049;28;20032;-77
2022/11/23 14:30:26;;;;;;;4.40;2.90;;;;;;;;;;5056288;28;20059;-77
2022/11/23 14:33:01;;;;;;;4.85;3.53;;;;;;;;;;5061902;28;20024;-76
2022/11/23 14:35:32;;;;;;;3.95;2.00;;;;;;;;;;5077428;28;20421;-76
2022/11/23 14:37:58;;;;;;;10.18;2.53;;;;;;;;;;5068689;28;20032;-76
2022/11/23 14:40:24;;;;;;;3.72;2.60;;;;;;;;;;5069767;28;20084;-76
2022/11/23 14:42:52;;;;;;;5.20;1.98;;;;;;;;;;5086887;28;20032;-77
2022/11/23 14:45:19;;;;;;;5.53;2.20;;;;;;;;;;5069194;28;20040;-75
2022/11/23 14:47:45;;;;;;;7.30;2.85;;;;;;;;;;5068558;28;20032;-76
2022/11/23 14:50:27;;;;;;;17.27;6.15;;;;;;;;;;5063452;28;20032;-76
2022/11/23 14:52:54;;;;;;;7.68;2.70;;;;;;;;;;5069444;28;20028;-76
2022/11/23 14:55:25;;;;;;;9.80;3.33;;;;;;;;;;5060946;28;20029;-76
2022/11/23 14:57:53;;;;;;;8.07;3.00;;;;;;;;;;5070684;28;20028;-75